Iuka, IL (62849)

6:39 PM CST on December 27, 2014 (GMT -0600)
Middleton Street Weather | Change Station
CLOSE
Current Station
Personal Weather Station
Location: Iuka, IL
Elevation: 518 ft
Nearby Weather Stations

Elev 518 ft 38.61 °N, 88.79 °W | Updated 0 second ago

Rain
Rain
37.9 °F
Feels Like 35 °F
N
4.0
Wind Variable Wind from NW
Gusts 6.0 mph

Today
High -- | Low -- °F
--% Chance of Precip.
Yesterday
High -- | Low -- °F
Precip. -- in
7:11 AM 4:40 PM
Waxing Crescent, 41% visible
Pressure 30.16 in
Visibility 4.0 miles
Clouds Overcast 700 ft
Windchill 35 °F
Dew Point -8 °F
Humidity 15%
Rainfall 0.22 in
Snow Depth Not available.
UV 0 out of 12
Pollen 1.60 out of 12
Air Quality Not available.
Flu Activity Not available.
METAR KSLO 280015Z AUTO 35008KT 4SM RA OVC007 04/03 A3016 RMK AO2 P0002 T00430029

More Conditions Fewer Conditions

Pressure 30.16 in
Visibility 4.0 miles
Clouds Overcast 700 ft
Windchill 35 °F
Dew Point -8 °F
Humidity 15%
Rainfall 0.22 in
Snow Depth Not available.
UV 0 out of 12
Pollen 1.60 out of 12
Air Quality Not available.
Flu Activity Not available.
METAR KSLO 280015Z AUTO 35008KT 4SM RA OVC007 04/03 A3016 RMK AO2 P0002 T00430029

More Conditions Fewer Conditions

10-Day Weather Forecast

Almanac

Astronomy

Dec. 27, 2014 Rise Set
Actual Time
Civil Twilight
Nautical Twilight
Astronomical Twilight
Moon
Length of Visible Light
Length of Day
Tomorrow will be .
, % of the Moon is Illuminated

Today's Extremes

State Highs State Lows

Community

WunderPhotos

Upload Photos

1,781,116 photos uploaded!

WunderBlogs® & News

Nearby

Air Quality

  Air Quality AQ Index Pollutant
Not available.

Snow Depth

Station Depth Elevation

Earthquake Activity

City Distance Mag. Time & Date
Minimum magnitude displayed is 2.5.

Coastal Water Temperatures

Place Temperature

Nearby Weather Stations